sensor_id;sensor_type;location;lat;lon;timestamp;temperature;humidity
11991;DHT22;6055;52.522;13.446;2022-08-03T00:01:19;22.50;91.20
11991;DHT22;6055;52.522;13.446;2022-08-03T00:03:44;22.50;91.00
11991;DHT22;6055;52.522;13.446;2022-08-03T00:06:10;22.50;91.20
11991;DHT22;6055;52.522;13.446;2022-08-03T00:08:36;22.50;91.30
11991;DHT22;6055;52.522;13.446;2022-08-03T00:11:02;22.50;91.50
11991;DHT22;6055;52.522;13.446;2022-08-03T00:13:27;22.50;92.30
11991;DHT22;6055;52.522;13.446;2022-08-03T00:15:53;22.50;91.40
11991;DHT22;6055;52.522;13.446;2022-08-03T00:18:19;22.50;91.70
11991;DHT22;6055;52.522;13.446;2022-08-03T00:20:44;22.50;91.50
11991;DHT22;6055;52.522;13.446;2022-08-03T00:23:10;22.50;92.10
11991;DHT22;6055;52.522;13.446;2022-08-03T00:25:36;22.40;92.60
11991;DHT22;6055;52.522;13.446;2022-08-03T00:28:03;22.50;92.70
11991;DHT22;6055;52.522;13.446;2022-08-03T00:30:29;22.40;92.30
11991;DHT22;6055;52.522;13.446;2022-08-03T00:32:55;22.40;92.30
11991;DHT22;6055;52.522;13.446;2022-08-03T00:35:20;22.40;92.30
11991;DHT22;6055;52.522;13.446;2022-08-03T00:37:46;22.30;92.60
11991;DHT22;6055;52.522;13.446;2022-08-03T00:40:13;22.30;92.40
11991;DHT22;6055;52.522;13.446;2022-08-03T00:45:31;22.30;93.60
11991;DHT22;6055;52.522;13.446;2022-08-03T00:47:58;22.30;93.30
11991;DHT22;6055;52.522;13.446;2022-08-03T00:50:26;22.30;93.90
11991;DHT22;6055;52.522;13.446;2022-08-03T00:52:54;22.30;93.30
11991;DHT22;6055;52.522;13.446;2022-08-03T00:55:20;22.30;93.60
11991;DHT22;6055;52.522;13.446;2022-08-03T00:57:46;22.40;94.00
11991;DHT22;6055;52.522;13.446;2022-08-03T01:00:15;22.40;93.90
11991;DHT22;6055;52.522;13.446;2022-08-03T01:02:41;22.40;94.30
11991;DHT22;6055;52.522;13.446;2022-08-03T01:05:07;22.40;94.40
11991;DHT22;6055;52.522;13.446;2022-08-03T01:07:58;22.40;94.30
11991;DHT22;6055;52.522;13.446;2022-08-03T01:13:47;22.30;94.90
11991;DHT22;6055;52.522;13.446;2022-08-03T01:19:35;22.30;94.80
11991;DHT22;6055;52.522;13.446;2022-08-03T01:24:55;22.20;95.50
11991;DHT22;6055;52.522;13.446;2022-08-03T01:30:13;22.20;95.30
11991;DHT22;6055;52.522;13.446;2022-08-03T01:33:03;22.20;95.60
11991;DHT22;6055;52.522;13.446;2022-08-03T01:35:34;22.20;95.70
11991;DHT22;6055;52.522;13.446;2022-08-03T01:38:03;22.10;95.50
11991;DHT22;6055;52.522;13.446;2022-08-03T01:40:32;22.10;95.30
11991;DHT22;6055;52.522;13.446;2022-08-03T01:42:59;22.10;95.60
11991;DHT22;6055;52.522;13.446;2022-08-03T01:45:26;22.20;95.40
11991;DHT22;6055;52.522;13.446;2022-08-03T01:47:53;22.10;95.10
11991;DHT22;6055;52.522;13.446;2022-08-03T01:50:22;22.10;95.10
11991;DHT22;6055;52.522;13.446;2022-08-03T01:52:49;22.20;95.00
11991;DHT22;6055;52.522;13.446;2022-08-03T01:55:18;22.20;95.90
11991;DHT22;6055;52.522;13.446;2022-08-03T01:57:44;22.20;95.50
11991;DHT22;6055;52.522;13.446;2022-08-03T02:00:12;22.20;95.40
11991;DHT22;6055;52.522;13.446;2022-08-03T02:02:39;22.20;95.60
11991;DHT22;6055;52.522;13.446;2022-08-03T02:05:08;22.20;95.00
11991;DHT22;6055;52.522;13.446;2022-08-03T02:07:37;22.20;95.10
11991;DHT22;6055;52.522;13.446;2022-08-03T02:10:05;22.20;95.20
11991;DHT22;6055;52.522;13.446;2022-08-03T02:12:33;22.20;95.30
11991;DHT22;6055;52.522;13.446;2022-08-03T02:15:00;22.20;95.70
11991;DHT22;6055;52.522;13.446;2022-08-03T02:17:27;22.20;95.30
11991;DHT22;6055;52.522;13.446;2022-08-03T02:19:55;22.20;95.00
11991;DHT22;6055;52.522;13.446;2022-08-03T02:22:23;22.20;95.20
11991;DHT22;6055;52.522;13.446;2022-08-03T02:24:49;22.20;95.00
11991;DHT22;6055;52.522;13.446;2022-08-03T02:27:20;22.20;95.30
11991;DHT22;6055;52.522;13.446;2022-08-03T02:29:50;22.20;95.00
11991;DHT22;6055;52.522;13.446;2022-08-03T02:32:19;22.20;95.00
11991;DHT22;6055;52.522;13.446;2022-08-03T02:34:48;22.20;94.80
11991;DHT22;6055;52.522;13.446;2022-08-03T02:37:17;22.20;95.00
11991;DHT22;6055;52.522;13.446;2022-08-03T02:39:44;22.20;95.30
11991;DHT22;6055;52.522;13.446;2022-08-03T02:42:12;22.20;94.90
11991;DHT22;6055;52.522;13.446;2022-08-03T02:44:39;22.20;95.50
11991;DHT22;6055;52.522;13.446;2022-08-03T02:47:09;22.20;95.40
11991;DHT22;6055;52.522;13.446;2022-08-03T02:49:37;22.20;95.00
11991;DHT22;6055;52.522;13.446;2022-08-03T02:52:03;22.20;95.00
11991;DHT22;6055;52.522;13.446;2022-08-03T02:54:33;22.20;95.00
11991;DHT22;6055;52.522;13.446;2022-08-03T02:57:01;22.20;95.30
11991;DHT22;6055;52.522;13.446;2022-08-03T02:59:28;22.20;95.40
11991;DHT22;6055;52.522;13.446;2022-08-03T03:01:56;22.20;95.30
11991;DHT22;6055;52.522;13.446;2022-08-03T03:04:23;22.20;95.80
11991;DHT22;6055;52.522;13.446;2022-08-03T03:06:50;22.20;96.10
11991;DHT22;6055;52.522;13.446;2022-08-03T03:09:17;22.20;95.50
11991;DHT22;6055;52.522;13.446;2022-08-03T03:11:43;22.10;95.90
11991;DHT22;6055;52.522;13.446;2022-08-03T03:14:09;22.10;95.50
11991;DHT22;6055;52.522;13.446;2022-08-03T03:16:35;22.10;96.30
11991;DHT22;6055;52.522;13.446;2022-08-03T03:19:01;22.00;96.20
11991;DHT22;6055;52.522;13.446;2022-08-03T03:21:28;22.10;95.90
11991;DHT22;6055;52.522;13.446;2022-08-03T03:23:55;22.00;96.20
11991;DHT22;6055;52.522;13.446;2022-08-03T03:26:21;22.00;96.40
11991;DHT22;6055;52.522;13.446;2022-08-03T03:28:47;22.00;96.00
11991;DHT22;6055;52.522;13.446;2022-08-03T03:31:13;22.00;96.70
11991;DHT22;6055;52.522;13.446;2022-08-03T03:33:38;22.00;96.40
11991;DHT22;6055;52.522;13.446;2022-08-03T03:36:05;22.00;96.40
11991;DHT22;6055;52.522;13.446;2022-08-03T03:38:31;22.00;96.50
11991;DHT22;6055;52.522;13.446;2022-08-03T03:40:57;22.00;97.00
11991;DHT22;6055;52.522;13.446;2022-08-03T03:43:23;22.00;97.00
11991;DHT22;6055;52.522;13.446;2022-08-03T03:45:49;22.00;96.60
11991;DHT22;6055;52.522;13.446;2022-08-03T03:48:16;22.00;97.00
11991;DHT22;6055;52.522;13.446;2022-08-03T03:50:43;22.00;96.60
11991;DHT22;6055;52.522;13.446;2022-08-03T03:53:09;22.00;96.60
11991;DHT22;6055;52.522;13.446;2022-08-03T03:55:36;22.00;96.90
11991;DHT22;6055;52.522;13.446;2022-08-03T03:58:03;22.00;96.60
11991;DHT22;6055;52.522;13.446;2022-08-03T04:00:29;22.00;96.50
11991;DHT22;6055;52.522;13.446;2022-08-03T04:02:55;21.90;96.60
11991;DHT22;6055;52.522;13.446;2022-08-03T04:05:20;21.90;96.60
11991;DHT22;6055;52.522;13.446;2022-08-03T04:08:13;21.80;97.20
11991;DHT22;6055;52.522;13.446;2022-08-03T04:11:10;21.80;98.30
11991;DHT22;6055;52.522;13.446;2022-08-03T04:16:14;21.80;97.60
11991;DHT22;6055;52.522;13.446;2022-08-03T04:18:42;21.80;97.90
11991;DHT22;6055;52.522;13.446;2022-08-03T04:21:10;21.80;97.30
11991;DHT22;6055;52.522;13.446;2022-08-03T04:23:40;21.80;97.70
11991;DHT22;6055;52.522;13.446;2022-08-03T04:26:08;21.80;97.50
11991;DHT22;6055;52.522;13.446;2022-08-03T04:28:36;21.80;97.80
11991;DHT22;6055;52.522;13.446;2022-08-03T04:31:05;21.80;97.90
11991;DHT22;6055;52.522;13.446;2022-08-03T04:33:32;21.80;98.00
11991;DHT22;6055;52.522;13.446;2022-08-03T04:36:01;21.80;98.20
11991;DHT22;6055;52.522;13.446;2022-08-03T04:38:30;21.80;98.30
11991;DHT22;6055;52.522;13.446;2022-08-03T04:40:56;21.80;99.20
11991;DHT22;6055;52.522;13.446;2022-08-03T04:43:21;21.80;98.70
11991;DHT22;6055;52.522;13.446;2022-08-03T04:45:48;21.80;98.40
11991;DHT22;6055;52.522;13.446;2022-08-03T04:48:14;21.90;98.10
11991;DHT22;6055;52.522;13.446;2022-08-03T04:50:40;21.90;97.90
11991;DHT22;6055;52.522;13.446;2022-08-03T04:53:06;21.90;98.70
11991;DHT22;6055;52.522;13.446;2022-08-03T04:55:33;21.90;98.40
11991;DHT22;6055;52.522;13.446;2022-08-03T04:58:00;21.90;98.00
11991;DHT22;6055;52.522;13.446;2022-08-03T05:00:26;21.90;97.50
11991;DHT22;6055;52.522;13.446;2022-08-03T05:02:52;21.90;97.90
11991;DHT22;6055;52.522;13.446;2022-08-03T05:05:19;21.90;97.70
11991;DHT22;6055;52.522;13.446;2022-08-03T05:07:44;22.00;96.90
11991;DHT22;6055;52.522;13.446;2022-08-03T05:10:11;22.00;97.80
11991;DHT22;6055;52.522;13.446;2022-08-03T05:12:37;22.00;97.00
11991;DHT22;6055;52.522;13.446;2022-08-03T05:15:03;22.00;97.40
11991;DHT22;6055;52.522;13.446;2022-08-03T05:17:29;22.00;97.00
11991;DHT22;6055;52.522;13.446;2022-08-03T05:19:54;22.00;97.90
11991;DHT22;6055;52.522;13.446;2022-08-03T05:22:21;22.00;97.50
11991;DHT22;6055;52.522;13.446;2022-08-03T05:24:47;22.00;97.00
11991;DHT22;6055;52.522;13.446;2022-08-03T05:27:12;22.10;96.30
11991;DHT22;6055;52.522;13.446;2022-08-03T05:29:47;22.10;96.70
11991;DHT22;6055;52.522;13.446;2022-08-03T05:32:13;22.10;96.70
11991;DHT22;6055;52.522;13.446;2022-08-03T05:34:39;22.20;96.70
11991;DHT22;6055;52.522;13.446;2022-08-03T05:37:05;22.20;96.90
11991;DHT22;6055;52.522;13.446;2022-08-03T05:39:31;22.20;96.60
11991;DHT22;6055;52.522;13.446;2022-08-03T05:41:57;22.30;96.80
11991;DHT22;6055;52.522;13.446;2022-08-03T05:44:22;22.30;96.40
11991;DHT22;6055;52.522;13.446;2022-08-03T05:46:49;22.30;96.60
11991;DHT22;6055;52.522;13.446;2022-08-03T05:49:15;22.40;96.50
11991;DHT22;6055;52.522;13.446;2022-08-03T05:51:41;22.40;96.60
11991;DHT22;6055;52.522;13.446;2022-08-03T05:54:06;22.50;96.80
11991;DHT22;6055;52.522;13.446;2022-08-03T05:56:32;22.50;96.60
11991;DHT22;6055;52.522;13.446;2022-08-03T05:58:57;22.50;96.20
11991;DHT22;6055;52.522;13.446;2022-08-03T06:01:22;22.50;96.20
11991;DHT22;6055;52.522;13.446;2022-08-03T06:03:49;22.60;96.40
11991;DHT22;6055;52.522;13.446;2022-08-03T06:06:15;22.60;96.30
11991;DHT22;6055;52.522;13.446;2022-08-03T06:08:42;22.70;96.10
11991;DHT22;6055;52.522;13.446;2022-08-03T06:11:08;22.70;94.30
11991;DHT22;6055;52.522;13.446;2022-08-03T06:13:34;22.80;94.20
11991;DHT22;6055;52.522;13.446;2022-08-03T06:16:00;22.90;94.20
11991;DHT22;6055;52.522;13.446;2022-08-03T06:18:26;22.90;94.80
11991;DHT22;6055;52.522;13.446;2022-08-03T06:20:52;22.90;94.10
11991;DHT22;6055;52.522;13.446;2022-08-03T06:23:17;23.00;94.40
11991;DHT22;6055;52.522;13.446;2022-08-03T06:25:43;23.00;93.10
11991;DHT22;6055;52.522;13.446;2022-08-03T06:28:09;23.10;92.70
11991;DHT22;6055;52.522;13.446;2022-08-03T06:30:34;23.20;92.00
11991;DHT22;6055;52.522;13.446;2022-08-03T06:33:00;23.20;92.40
11991;DHT22;6055;52.522;13.446;2022-08-03T06:35:26;23.30;91.90
11991;DHT22;6055;52.522;13.446;2022-08-03T06:37:52;23.30;91.20
11991;DHT22;6055;52.522;13.446;2022-08-03T06:40:20;23.40;91.10
11991;DHT22;6055;52.522;13.446;2022-08-03T06:42:53;23.50;91.00
11991;DHT22;6055;52.522;13.446;2022-08-03T06:45:18;23.50;90.50
11991;DHT22;6055;52.522;13.446;2022-08-03T06:47:44;23.60;90.70
11991;DHT22;6055;52.522;13.446;2022-08-03T06:50:10;23.60;90.50
11991;DHT22;6055;52.522;13.446;2022-08-03T06:52:35;23.70;90.30
11991;DHT22;6055;52.522;13.446;2022-08-03T06:55:01;23.70;90.60
11991;DHT22;6055;52.522;13.446;2022-08-03T06:57:26;23.80;90.00
11991;DHT22;6055;52.522;13.446;2022-08-03T06:59:52;23.80;90.20
11991;DHT22;6055;52.522;13.446;2022-08-03T07:02:17;23.90;90.10
11991;DHT22;6055;52.522;13.446;2022-08-03T07:04:43;23.90;90.10
11991;DHT22;6055;52.522;13.446;2022-08-03T07:07:09;24.00;90.20
11991;DHT22;6055;52.522;13.446;2022-08-03T07:09:34;24.00;89.60
11991;DHT22;6055;52.522;13.446;2022-08-03T07:12:00;24.00;90.00
11991;DHT22;6055;52.522;13.446;2022-08-03T07:14:26;24.10;89.00
11991;DHT22;6055;52.522;13.446;2022-08-03T07:16:52;24.20;88.30
11991;DHT22;6055;52.522;13.446;2022-08-03T07:19:17;24.20;88.60
11991;DHT22;6055;52.522;13.446;2022-08-03T07:21:43;24.20;88.30
11991;DHT22;6055;52.522;13.446;2022-08-03T07:24:09;24.30;87.70
11991;DHT22;6055;52.522;13.446;2022-08-03T07:26:35;24.30;87.60
11991;DHT22;6055;52.522;13.446;2022-08-03T07:29:00;24.30;87.70
11991;DHT22;6055;52.522;13.446;2022-08-03T07:31:26;24.40;88.20
11991;DHT22;6055;52.522;13.446;2022-08-03T07:33:52;24.50;87.30
11991;DHT22;6055;52.522;13.446;2022-08-03T07:36:17;24.50;87.50
11991;DHT22;6055;52.522;13.446;2022-08-03T07:38:43;24.60;87.10
11991;DHT22;6055;52.522;13.446;2022-08-03T07:41:08;24.70;86.90
11991;DHT22;6055;52.522;13.446;2022-08-03T07:43:34;24.70;86.50
11991;DHT22;6055;52.522;13.446;2022-08-03T07:45:59;24.80;86.30
11991;DHT22;6055;52.522;13.446;2022-08-03T07:48:25;24.80;85.90
11991;DHT22;6055;52.522;13.446;2022-08-03T07:50:50;24.90;85.90
11991;DHT22;6055;52.522;13.446;2022-08-03T07:53:17;25.00;85.70
11991;DHT22;6055;52.522;13.446;2022-08-03T07:55:42;25.10;85.70
11991;DHT22;6055;52.522;13.446;2022-08-03T07:58:10;25.20;85.00
11991;DHT22;6055;52.522;13.446;2022-08-03T08:00:47;25.30;83.90
11991;DHT22;6055;52.522;13.446;2022-08-03T08:03:12;25.40;83.50
11991;DHT22;6055;52.522;13.446;2022-08-03T08:05:38;25.40;83.10
11991;DHT22;6055;52.522;13.446;2022-08-03T08:08:04;25.40;84.00
11991;DHT22;6055;52.522;13.446;2022-08-03T08:10:30;25.50;82.70
11991;DHT22;6055;52.522;13.446;2022-08-03T08:12:57;25.60;82.80
11991;DHT22;6055;52.522;13.446;2022-08-03T08:15:22;25.60;82.00
11991;DHT22;6055;52.522;13.446;2022-08-03T08:17:50;25.60;82.10
11991;DHT22;6055;52.522;13.446;2022-08-03T08:20:19;25.70;82.10
11991;DHT22;6055;52.522;13.446;2022-08-03T08:22:44;25.70;82.50
11991;DHT22;6055;52.522;13.446;2022-08-03T08:25:10;25.70;82.60
11991;DHT22;6055;52.522;13.446;2022-08-03T08:27:44;25.80;82.60
11991;DHT22;6055;52.522;13.446;2022-08-03T08:30:11;25.80;81.90
11991;DHT22;6055;52.522;13.446;2022-08-03T08:32:37;25.90;81.70
11991;DHT22;6055;52.522;13.446;2022-08-03T08:35:07;26.20;80.50
11991;DHT22;6055;52.522;13.446;2022-08-03T08:37:33;26.20;79.40
11991;DHT22;6055;52.522;13.446;2022-08-03T08:39:59;26.40;79.40
11991;DHT22;6055;52.522;13.446;2022-08-03T08:42:25;27.10;78.30
11991;DHT22;6055;52.522;13.446;2022-08-03T08:44:51;28.00;77.00
11991;DHT22;6055;52.522;13.446;2022-08-03T08:47:18;29.10;74.00
11991;DHT22;6055;52.522;13.446;2022-08-03T08:49:51;30.20;71.70
11991;DHT22;6055;52.522;13.446;2022-08-03T08:52:23;31.30;69.60
11991;DHT22;6055;52.522;13.446;2022-08-03T08:54:49;32.30;66.00
11991;DHT22;6055;52.522;13.446;2022-08-03T08:57:16;32.90;61.50
11991;DHT22;6055;52.522;13.446;2022-08-03T08:59:43;33.00;61.90
11991;DHT22;6055;52.522;13.446;2022-08-03T09:02:09;33.30;60.20
11991;DHT22;6055;52.522;13.446;2022-08-03T09:04:37;33.60;59.80
11991;DHT22;6055;52.522;13.446;2022-08-03T09:07:03;34.10;57.70
11991;DHT22;6055;52.522;13.446;2022-08-03T09:09:30;34.40;56.50
11991;DHT22;6055;52.522;13.446;2022-08-03T09:11:55;35.00;55.50
11991;DHT22;6055;52.522;13.446;2022-08-03T09:14:21;35.50;54.50
11991;DHT22;6055;52.522;13.446;2022-08-03T09:16:57;34.80;53.10
11991;DHT22;6055;52.522;13.446;2022-08-03T09:19:30;34.30;53.70
11991;DHT22;6055;52.522;13.446;2022-08-03T09:22:10;34.60;52.40
11991;DHT22;6055;52.522;13.446;2022-08-03T09:24:38;35.00;51.60
11991;DHT22;6055;52.522;13.446;2022-08-03T09:27:05;35.80;52.00
11991;DHT22;6055;52.522;13.446;2022-08-03T09:29:32;36.50;50.30
11991;DHT22;6055;52.522;13.446;2022-08-03T09:32:00;36.60;48.90
11991;DHT22;6055;52.522;13.446;2022-08-03T09:34:26;36.70;47.90
11991;DHT22;6055;52.522;13.446;2022-08-03T09:36:53;37.00;48.40
11991;DHT22;6055;52.522;13.446;2022-08-03T09:39:21;36.90;46.50
11991;DHT22;6055;52.522;13.446;2022-08-03T09:42:03;36.80;47.20
11991;DHT22;6055;52.522;13.446;2022-08-03T09:44:36;35.80;46.50
11991;DHT22;6055;52.522;13.446;2022-08-03T09:47:03;35.70;47.30
11991;DHT22;6055;52.522;13.446;2022-08-03T09:49:29;36.20;47.70
11991;DHT22;6055;52.522;13.446;2022-08-03T09:51:54;36.60;46.30
11991;DHT22;6055;52.522;13.446;2022-08-03T09:54:27;37.10;46.90
11991;DHT22;6055;52.522;13.446;2022-08-03T09:56:53;37.40;45.60
11991;DHT22;6055;52.522;13.446;2022-08-03T09:59:29;37.80;46.40
11991;DHT22;6055;52.522;13.446;2022-08-03T10:01:56;37.80;45.30
11991;DHT22;6055;52.522;13.446;2022-08-03T10:04:22;37.70;44.80
11991;DHT22;6055;52.522;13.446;2022-08-03T10:07:14;37.90;44.80
11991;DHT22;6055;52.522;13.446;2022-08-03T10:12:20;38.60;44.50
11991;DHT22;6055;52.522;13.446;2022-08-03T10:14:46;38.70;43.50
11991;DHT22;6055;52.522;13.446;2022-08-03T10:17:12;38.90;44.30
11991;DHT22;6055;52.522;13.446;2022-08-03T10:19:38;39.00;42.10
11991;DHT22;6055;52.522;13.446;2022-08-03T10:22:13;38.60;40.80
11991;DHT22;6055;52.522;13.446;2022-08-03T10:24:47;38.20;42.50
11991;DHT22;6055;52.522;13.446;2022-08-03T10:27:14;38.20;40.80
11991;DHT22;6055;52.522;13.446;2022-08-03T10:29:44;38.40;41.80
11991;DHT22;6055;52.522;13.446;2022-08-03T10:32:20;38.70;40.60
11991;DHT22;6055;52.522;13.446;2022-08-03T10:34:49;38.60;39.90
11991;DHT22;6055;52.522;13.446;2022-08-03T10:37:16;38.60;40.00
11991;DHT22;6055;52.522;13.446;2022-08-03T10:39:43;38.20;39.70
11991;DHT22;6055;52.522;13.446;2022-08-03T10:42:25;37.40;40.40
11991;DHT22;6055;52.522;13.446;2022-08-03T10:44:56;37.10;40.20
11991;DHT22;6055;52.522;13.446;2022-08-03T10:47:24;37.10;43.30
11991;DHT22;6055;52.522;13.446;2022-08-03T10:49:50;37.40;41.40
11991;DHT22;6055;52.522;13.446;2022-08-03T10:52:16;37.60;41.90
11991;DHT22;6055;52.522;13.446;2022-08-03T10:54:43;37.80;40.10
11991;DHT22;6055;52.522;13.446;2022-08-03T10:57:43;38.10;41.90
11991;DHT22;6055;52.522;13.446;2022-08-03T11:00:10;38.40;39.60
11991;DHT22;6055;52.522;13.446;2022-08-03T11:05:33;38.90;41.00
11991;DHT22;6055;52.522;13.446;2022-08-03T11:08:27;39.30;39.40
11991;DHT22;6055;52.522;13.446;2022-08-03T11:11:01;39.30;38.80
11991;DHT22;6055;52.522;13.446;2022-08-03T11:13:29;39.40;37.70
11991;DHT22;6055;52.522;13.446;2022-08-03T11:16:00;39.50;37.90
11991;DHT22;6055;52.522;13.446;2022-08-03T11:18:26;39.60;37.80
11991;DHT22;6055;52.522;13.446;2022-08-03T11:20:54;39.80;39.20
11991;DHT22;6055;52.522;13.446;2022-08-03T11:23:39;39.90;36.60
11991;DHT22;6055;52.522;13.446;2022-08-03T11:26:16;39.80;38.90
11991;DHT22;6055;52.522;13.446;2022-08-03T11:28:44;39.50;36.50
11991;DHT22;6055;52.522;13.446;2022-08-03T11:34:07;38.70;38.60
11991;DHT22;6055;52.522;13.446;2022-08-03T11:39:43;39.10;40.30
11991;DHT22;6055;52.522;13.446;2022-08-03T11:44:49;39.60;36.90
11991;DHT22;6055;52.522;13.446;2022-08-03T11:47:16;38.60;36.90
11991;DHT22;6055;52.522;13.446;2022-08-03T11:49:50;38.20;37.20
11991;DHT22;6055;52.522;13.446;2022-08-03T11:52:16;38.30;36.20
11991;DHT22;6055;52.522;13.446;2022-08-03T11:54:42;38.20;39.30
11991;DHT22;6055;52.522;13.446;2022-08-03T11:57:08;38.40;38.50
11991;DHT22;6055;52.522;13.446;2022-08-03T11:59:35;38.30;37.50
11991;DHT22;6055;52.522;13.446;2022-08-03T12:02:08;38.40;39.10
11991;DHT22;6055;52.522;13.446;2022-08-03T12:04:54;38.50;38.00
11991;DHT22;6055;52.522;13.446;2022-08-03T12:07:23;38.80;38.40
11991;DHT22;6055;52.522;13.446;2022-08-03T12:10:11;39.00;38.10
11991;DHT22;6055;52.522;13.446;2022-08-03T12:12:39;39.10;37.90
11991;DHT22;6055;52.522;13.446;2022-08-03T12:15:05;38.90;38.20
11991;DHT22;6055;52.522;13.446;2022-08-03T12:17:35;38.20;37.00
11991;DHT22;6055;52.522;13.446;2022-08-03T12:20:02;37.90;37.10
11991;DHT22;6055;52.522;13.446;2022-08-03T12:22:37;37.90;38.10
11991;DHT22;6055;52.522;13.446;2022-08-03T12:25:06;37.90;39.60
11991;DHT22;6055;52.522;13.446;2022-08-03T12:27:32;38.10;40.70
11991;DHT22;6055;52.522;13.446;2022-08-03T12:29:59;38.50;40.10
11991;DHT22;6055;52.522;13.446;2022-08-03T12:32:26;38.40;37.00
11991;DHT22;6055;52.522;13.446;2022-08-03T12:34:53;38.00;37.50
11991;DHT22;6055;52.522;13.446;2022-08-03T12:37:20;38.00;37.00
11991;DHT22;6055;52.522;13.446;2022-08-03T12:39:54;37.90;39.30
11991;DHT22;6055;52.522;13.446;2022-08-03T12:42:19;38.00;37.60
11991;DHT22;6055;52.522;13.446;2022-08-03T12:44:45;38.00;37.90
11991;DHT22;6055;52.522;13.446;2022-08-03T12:47:13;38.00;37.90
11991;DHT22;6055;52.522;13.446;2022-08-03T12:49:47;38.00;37.90
11991;DHT22;6055;52.522;13.446;2022-08-03T12:52:14;38.00;37.50
11991;DHT22;6055;52.522;13.446;2022-08-03T12:54:39;37.90;38.90
11991;DHT22;6055;52.522;13.446;2022-08-03T12:57:07;37.40;38.30
11991;DHT22;6055;52.522;13.446;2022-08-03T12:59:39;37.20;38.00
11991;DHT22;6055;52.522;13.446;2022-08-03T13:02:17;37.50;40.10
11991;DHT22;6055;52.522;13.446;2022-08-03T13:04:44;37.90;39.80
11991;DHT22;6055;52.522;13.446;2022-08-03T13:07:10;37.90;38.30
11991;DHT22;6055;52.522;13.446;2022-08-03T13:09:44;38.30;41.50
11991;DHT22;6055;52.522;13.446;2022-08-03T13:12:18;38.80;39.40
11991;DHT22;6055;52.522;13.446;2022-08-03T13:14:46;39.10;39.90
11991;DHT22;6055;52.522;13.446;2022-08-03T13:17:12;39.60;38.40
11991;DHT22;6055;52.522;13.446;2022-08-03T13:19:38;39.80;39.10
11991;DHT22;6055;52.522;13.446;2022-08-03T13:22:18;39.80;40.20
11991;DHT22;6055;52.522;13.446;2022-08-03T13:24:46;39.70;36.70
11991;DHT22;6055;52.522;13.446;2022-08-03T13:27:12;39.60;35.30
11991;DHT22;6055;52.522;13.446;2022-08-03T13:29:38;39.40;37.10
11991;DHT22;6055;52.522;13.446;2022-08-03T13:32:05;39.10;37.90
11991;DHT22;6055;52.522;13.446;2022-08-03T13:34:31;38.90;37.50
11991;DHT22;6055;52.522;13.446;2022-08-03T13:36:56;38.70;37.30
11991;DHT22;6055;52.522;13.446;2022-08-03T13:39:22;38.20;36.60
11991;DHT22;6055;52.522;13.446;2022-08-03T13:41:48;37.70;38.40
11991;DHT22;6055;52.522;13.446;2022-08-03T13:44:14;37.60;39.50
11991;DHT22;6055;52.522;13.446;2022-08-03T13:46:39;37.70;39.80
11991;DHT22;6055;52.522;13.446;2022-08-03T13:49:06;37.70;39.90
11991;DHT22;6055;52.522;13.446;2022-08-03T13:51:31;37.80;41.10
11991;DHT22;6055;52.522;13.446;2022-08-03T13:53:57;38.10;39.90
11991;DHT22;6055;52.522;13.446;2022-08-03T13:56:27;38.30;39.40
11991;DHT22;6055;52.522;13.446;2022-08-03T13:58:53;38.40;38.60
11991;DHT22;6055;52.522;13.446;2022-08-03T14:01:19;38.60;40.10
11991;DHT22;6055;52.522;13.446;2022-08-03T14:03:44;38.60;38.30
11991;DHT22;6055;52.522;13.446;2022-08-03T14:06:13;38.70;37.70
11991;DHT22;6055;52.522;13.446;2022-08-03T14:08:38;38.70;39.30
11991;DHT22;6055;52.522;13.446;2022-08-03T14:11:04;38.80;40.80
11991;DHT22;6055;52.522;13.446;2022-08-03T14:13:29;38.70;38.40
11991;DHT22;6055;52.522;13.446;2022-08-03T14:15:55;38.70;39.80
11991;DHT22;6055;52.522;13.446;2022-08-03T14:18:21;38.80;37.30
11991;DHT22;6055;52.522;13.446;2022-08-03T14:20:46;38.70;37.30
11991;DHT22;6055;52.522;13.446;2022-08-03T14:23:12;38.60;39.50
11991;DHT22;6055;52.522;13.446;2022-08-03T14:25:38;38.60;38.20
11991;DHT22;6055;52.522;13.446;2022-08-03T14:28:06;38.80;38.50
11991;DHT22;6055;52.522;13.446;2022-08-03T14:30:32;38.80;38.30
11991;DHT22;6055;52.522;13.446;2022-08-03T14:32:57;38.90;39.00
11991;DHT22;6055;52.522;13.446;2022-08-03T14:35:23;38.90;37.70
11991;DHT22;6055;52.522;13.446;2022-08-03T14:37:49;38.70;37.90
11991;DHT22;6055;52.522;13.446;2022-08-03T14:40:14;38.70;39.00
11991;DHT22;6055;52.522;13.446;2022-08-03T14:42:40;38.80;38.40
11991;DHT22;6055;52.522;13.446;2022-08-03T14:45:05;38.00;37.90
11991;DHT22;6055;52.522;13.446;2022-08-03T14:47:31;37.40;38.30
11991;DHT22;6055;52.522;13.446;2022-08-03T14:49:57;37.70;38.20
11991;DHT22;6055;52.522;13.446;2022-08-03T14:52:22;37.70;38.40
11991;DHT22;6055;52.522;13.446;2022-08-03T14:54:48;37.50;38.90
11991;DHT22;6055;52.522;13.446;2022-08-03T14:57:13;37.70;38.40
11991;DHT22;6055;52.522;13.446;2022-08-03T14:59:39;37.90;38.80
11991;DHT22;6055;52.522;13.446;2022-08-03T15:02:04;37.80;38.50
11991;DHT22;6055;52.522;13.446;2022-08-03T15:04:30;37.30;37.70
11991;DHT22;6055;52.522;13.446;2022-08-03T15:06:55;37.10;39.20
11991;DHT22;6055;52.522;13.446;2022-08-03T15:09:21;37.00;38.20
11991;DHT22;6055;52.522;13.446;2022-08-03T15:11:46;37.10;37.90
11991;DHT22;6055;52.522;13.446;2022-08-03T15:14:12;37.10;39.00
11991;DHT22;6055;52.522;13.446;2022-08-03T15:16:38;37.10;38.40
11991;DHT22;6055;52.522;13.446;2022-08-03T15:19:04;37.30;39.10
11991;DHT22;6055;52.522;13.446;2022-08-03T15:21:29;37.30;39.00
11991;DHT22;6055;52.522;13.446;2022-08-03T15:23:55;37.30;38.20
11991;DHT22;6055;52.522;13.446;2022-08-03T15:26:20;37.50;38.90
11991;DHT22;6055;52.522;13.446;2022-08-03T15:28:46;37.80;38.50
11991;DHT22;6055;52.522;13.446;2022-08-03T15:31:11;38.00;38.20
11991;DHT22;6055;52.522;13.446;2022-08-03T15:33:36;38.00;37.40
11991;DHT22;6055;52.522;13.446;2022-08-03T15:36:03;38.20;38.00
11991;DHT22;6055;52.522;13.446;2022-08-03T15:38:28;38.30;37.80
11991;DHT22;6055;52.522;13.446;2022-08-03T15:40:54;38.30;38.20
11991;DHT22;6055;52.522;13.446;2022-08-03T15:43:22;38.10;37.40
11991;DHT22;6055;52.522;13.446;2022-08-03T15:45:48;38.00;38.10
11991;DHT22;6055;52.522;13.446;2022-08-03T15:48:13;38.00;37.40
11991;DHT22;6055;52.522;13.446;2022-08-03T15:50:39;37.90;37.70
11991;DHT22;6055;52.522;13.446;2022-08-03T15:53:05;38.00;37.20
11991;DHT22;6055;52.522;13.446;2022-08-03T15:55:30;37.90;37.40
11991;DHT22;6055;52.522;13.446;2022-08-03T15:57:56;37.90;37.90
11991;DHT22;6055;52.522;13.446;2022-08-03T16:00:22;37.90;38.10
11991;DHT22;6055;52.522;13.446;2022-08-03T16:02:48;37.90;38.80
11991;DHT22;6055;52.522;13.446;2022-08-03T16:05:13;37.90;38.70